Time;durP1;ratioP1;P1;durP2;ratioP2;P2;SDS_P1;SDS_P2;PMS_P1;PMS_P2;Temp;Humidity;BMP_temperature;BMP_pressure;BME280_temperature;BME280_humidity;BME280_pressure;Samples;Min_cycle;Max_cycle;Signal;HPM_P1;HPM_P2
2023/07/08 00:01:21;;;;;;;9.70;7.70;;;;;;;;;;10466566;28;20047;-81
2023/07/08 00:06:23;;;;;;;10.80;7.75;;;;;;;;;;10483543;28;20029;-83
2023/07/08 00:11:24;;;;;;;8.57;7.57;;;;;;;;;;10470955;28;20040;-80
2023/07/08 00:16:24;;;;;;;9.45;7.32;;;;;;;;;;10495966;28;20071;-77
2023/07/08 00:21:25;;;;;;;7.60;6.80;;;;;;;;;;10495306;28;20559;-78
2023/07/08 00:26:27;;;;;;;8.07;6.53;;;;;;;;;;10482021;28;20028;-80
2023/07/08 00:31:31;;;;;;;;;;;;;;;;;;10484440;28;20104;-81
2023/07/08 00:36:32;;;;;;;8.02;6.22;;;;;;;;;;10470974;28;19924;-84
2023/07/08 00:41:36;;;;;;;7.43;6.07;;;;;;;;;;10489296;28;20036;-81
2023/07/08 00:46:42;;;;;;;7.80;6.13;;;;;;;;;;10489931;28;20036;-80
2023/07/08 00:51:43;;;;;;;7.55;6.05;;;;;;;;;;10470147;28;20448;-77
2023/07/08 00:56:44;;;;;;;7.80;5.93;;;;;;;;;;10499679;28;20123;-79
2023/07/08 01:01:45;;;;;;;6.30;5.70;;;;;;;;;;10492216;28;20041;-80
2023/07/08 01:06:47;;;;;;;6.75;6.07;;;;;;;;;;10481878;28;20499;-80
2023/07/08 01:11:50;;;;;;;6.07;5.47;;;;;;;;;;10479972;28;20552;-80
2023/07/08 01:16:51;;;;;;;6.43;5.70;;;;;;;;;;10468020;28;20052;-80
2023/07/08 01:21:54;;;;;;;6.82;5.75;;;;;;;;;;10487616;28;20334;-78
2023/07/08 01:26:56;;;;;;;7.90;5.93;;;;;;;;;;10479960;28;20040;-80
2023/07/08 01:31:57;;;;;;;7.35;5.63;;;;;;;;;;10500036;28;20044;-79
2023/07/08 01:36:59;;;;;;;6.07;5.47;;;;;;;;;;10454517;28;20047;-80
2023/07/08 01:41:59;;;;;;;7.68;6.53;;;;;;;;;;10475965;28;20860;-79
2023/07/08 01:47:11;;;;;;;6.63;5.90;;;;;;;;;;10457947;28;20040;-78
2023/07/08 01:52:12;;;;;;;8.00;6.85;;;;;;;;;;10488263;28;20043;-80
2023/07/08 01:57:12;;;;;;;6.70;6.00;;;;;;;;;;10482450;28;20044;-81
2023/07/08 02:02:14;;;;;;;7.57;6.82;;;;;;;;;;10467765;28;20075;-78
2023/07/08 02:07:15;;;;;;;7.30;6.38;;;;;;;;;;10485220;28;20106;-80
2023/07/08 02:12:18;;;;;;;7.50;6.47;;;;;;;;;;10496215;28;20042;-83
2023/07/08 02:17:18;;;;;;;8.98;6.78;;;;;;;;;;10485586;28;20036;-81
2023/07/08 02:22:19;;;;;;;7.07;6.37;;;;;;;;;;10464874;28;20529;-84
2023/07/08 02:27:19;;;;;;;7.95;6.90;;;;;;;;;;10483411;28;20059;-81
2023/07/08 02:32:20;;;;;;;7.13;6.40;;;;;;;;;;10464015;28;20131;-81
2023/07/08 02:37:20;;;;;;;8.15;7.35;;;;;;;;;;10486706;28;20350;-84
2023/07/08 02:42:21;;;;;;;7.53;6.73;;;;;;;;;;10471003;28;20791;-83
2023/07/08 02:47:21;;;;;;;7.15;6.45;;;;;;;;;;10483174;28;20387;-85
2023/07/08 02:52:22;;;;;;;8.00;7.20;;;;;;;;;;10486987;28;20732;-84
2023/07/08 02:57:22;;;;;;;7.50;6.78;;;;;;;;;;10480957;28;20048;-88
2023/07/08 03:02:23;;;;;;;5.90;5.40;;;;;;;;;;10484618;28;20039;-86
2023/07/08 03:07:23;;;;;;;6.75;6.05;;;;;;;;;;10468424;28;20790;-81
2023/07/08 03:12:24;;;;;;;7.20;6.50;;;;;;;;;;10482934;28;20073;-82
2023/07/08 03:17:24;;;;;;;6.40;5.70;;;;;;;;;;10464125;28;20308;-80
2023/07/08 03:22:25;;;;;;;7.07;6.28;;;;;;;;;;10478734;28;20297;-83
2023/07/08 03:27:26;;;;;;;7.68;6.60;;;;;;;;;;10464679;28;20063;-84
2023/07/08 03:32:27;;;;;;;6.97;6.00;;;;;;;;;;10458083;28;20581;-80
2023/07/08 03:37:31;;;;;;;7.03;6.32;;;;;;;;;;10458091;28;20139;-81
2023/07/08 03:42:31;;;;;;;12.73;6.88;;;;;;;;;;10461659;28;20035;-89
2023/07/08 03:47:31;;;;;;;8.48;5.95;;;;;;;;;;10481557;28;20344;-82
2023/07/08 03:52:33;;;;;;;8.13;6.68;;;;;;;;;;10456584;28;20101;-80
2023/07/08 03:57:34;;;;;;;8.60;6.80;;;;;;;;;;10451231;28;20089;-81
2023/07/08 04:02:36;;;;;;;8.85;6.82;;;;;;;;;;10460614;28;20071;-80
2023/07/08 04:07:36;;;;;;;7.50;6.22;;;;;;;;;;10485928;28;20028;-83
2023/07/08 04:12:38;;;;;;;8.43;7.00;;;;;;;;;;10479475;28;20081;-78
2023/07/08 04:17:45;;;;;;;8.73;6.75;;;;;;;;;;10477471;28;20040;-78
2023/07/08 04:22:45;;;;;;;9.07;7.70;;;;;;;;;;10477354;28;20055;-79
2023/07/08 04:27:46;;;;;;;7.90;7.10;;;;;;;;;;10478773;28;20311;-82
2023/07/08 04:32:46;;;;;;;9.27;7.40;;;;;;;;;;10474602;28;20136;-80
2023/07/08 04:37:47;;;;;;;8.23;7.28;;;;;;;;;;10470555;28;20067;-81
2023/07/08 04:42:47;;;;;;;7.80;6.80;;;;;;;;;;10438290;28;21204;-83
2023/07/08 04:47:51;;;;;;;7.97;6.75;;;;;;;;;;10459092;28;20134;-81
2023/07/08 04:52:52;;;;;;;8.20;6.22;;;;;;;;;;10487532;28;20071;-83
2023/07/08 04:57:53;;;;;;;7.78;6.13;;;;;;;;;;10473485;28;20500;-80
2023/07/08 05:02:55;;;;;;;7.57;6.57;;;;;;;;;;10483897;28;21145;-78
2023/07/08 05:07:55;;;;;;;7.18;6.22;;;;;;;;;;10460266;28;20286;-82
2023/07/08 05:12:56;;;;;;;6.55;5.95;;;;;;;;;;10475200;28;20047;-80
2023/07/08 05:17:56;;;;;;;7.80;6.30;;;;;;;;;;10481141;28;20056;-81
2023/07/08 05:22:57;;;;;;;7.50;6.43;;;;;;;;;;10467499;28;20299;-79
2023/07/08 05:27:57;;;;;;;6.77;6.07;;;;;;;;;;10476645;28;20286;-83
2023/07/08 05:32:58;;;;;;;6.50;5.77;;;;;;;;;;10479555;28;20055;-80
2023/07/08 05:38:01;;;;;;;6.97;5.93;;;;;;;;;;10486066;28;20411;-79
2023/07/08 05:43:01;;;;;;;;;;;;;;;;;;10481817;28;20078;-87
2023/07/08 05:48:01;;;;;;;6.83;6.00;;;;;;;;;;10486330;28;19923;-84
2023/07/08 05:53:03;;;;;;;6.85;6.05;;;;;;;;;;10484997;28;20431;-83
2023/07/08 05:58:04;;;;;;;6.90;5.90;;;;;;;;;;10470413;28;20044;-83
2023/07/08 06:03:04;;;;;;;7.63;6.17;;;;;;;;;;10479287;28;20046;-81
2023/07/08 06:08:08;;;;;;;7.97;6.60;;;;;;;;;;10455617;28;20028;-82
2023/07/08 06:13:11;;;;;;;7.75;6.35;;;;;;;;;;10503505;28;20324;-82
2023/07/08 06:18:16;;;;;;;7.68;6.43;;;;;;;;;;10488795;28;20111;-83
2023/07/08 06:23:20;;;;;;;8.60;6.70;;;;;;;;;;10470627;28;20033;-83
2023/07/08 06:28:23;;;;;;;8.15;6.57;;;;;;;;;;10475908;28;20033;-86
2023/07/08 06:33:27;;;;;;;9.30;6.57;;;;;;;;;;10435462;28;20072;-85
2023/07/08 06:38:28;;;;;;;8.35;6.30;;;;;;;;;;10467658;28;20129;-86
2023/07/08 06:43:29;;;;;;;5.65;5.15;;;;;;;;;;10476285;28;20028;-89
2023/07/08 06:48:39;;;;;;;6.32;5.40;;;;;;;;;;10465246;28;20049;-82
2023/07/08 06:53:42;;;;;;;7.18;6.47;;;;;;;;;;10461866;28;20029;-89
2023/07/08 06:58:42;;;;;;;6.90;5.90;;;;;;;;;;10457280;28;20071;-86
2023/07/08 07:03:43;;;;;;;7.38;5.57;;;;;;;;;;10477635;28;20151;-85
2023/07/08 07:08:43;;;;;;;8.93;6.82;;;;;;;;;;10488910;28;20049;-78
2023/07/08 07:13:43;;;;;;;7.37;5.73;;;;;;;;;;10472905;28;20033;-77
2023/07/08 07:18:44;;;;;;;5.43;4.87;;;;;;;;;;10481127;28;21559;-78
2023/07/08 07:23:45;;;;;;;6.93;4.60;;;;;;;;;;10474933;28;20543;-77
2023/07/08 07:28:45;;;;;;;5.40;4.70;;;;;;;;;;10475664;28;20416;-77
2023/07/08 07:33:45;;;;;;;5.75;4.20;;;;;;;;;;10470626;28;20351;-76
2023/07/08 07:38:46;;;;;;;4.90;4.03;;;;;;;;;;10469098;28;20040;-77
2023/07/08 07:43:46;;;;;;;5.83;5.10;;;;;;;;;;10474200;28;20037;-76
2023/07/08 07:48:49;;;;;;;6.05;4.78;;;;;;;;;;10475178;28;20040;-79
2023/07/08 07:53:50;;;;;;;4.47;4.03;;;;;;;;;;10478556;28;20056;-77
2023/07/08 07:58:50;;;;;;;6.97;4.63;;;;;;;;;;10464944;28;20060;-78
2023/07/08 08:03:52;;;;;;;6.03;4.43;;;;;;;;;;10478817;28;20115;-81
2023/07/08 08:08:53;;;;;;;5.88;4.68;;;;;;;;;;10481307;28;20113;-79
2023/07/08 08:13:53;;;;;;;14.27;5.28;;;;;;;;;;10478627;28;20040;-78
2023/07/08 08:18:54;;;;;;;5.30;4.80;;;;;;;;;;10472160;28;20047;-76
2023/07/08 08:23:54;;;;;;;4.57;4.07;;;;;;;;;;10477184;28;20396;-76
2023/07/08 08:28:54;;;;;;;6.77;4.13;;;;;;;;;;10472455;28;20037;-79
2023/07/08 08:33:55;;;;;;;4.93;4.30;;;;;;;;;;10466234;28;20029;-81
2023/07/08 08:38:55;;;;;;;5.40;4.63;;;;;;;;;;10472760;28;20040;-85
2023/07/08 08:43:56;;;;;;;5.77;4.43;;;;;;;;;;10479182;28;20062;-84
2023/07/08 08:49:02;;;;;;;6.73;4.73;;;;;;;;;;10481832;28;20041;-79
2023/07/08 08:54:02;;;;;;;7.03;5.45;;;;;;;;;;10481380;28;20032;-82
2023/07/08 08:59:16;;;;;;;7.77;4.80;;;;;;;;;;10503505;28;20048;-78
2023/07/08 09:04:22;;;;;;;5.57;4.30;;;;;;;;;;10489308;28;20119;-79
2023/07/08 09:09:28;;;;;;;5.28;4.40;;;;;;;;;;10492752;28;20335;-78
2023/07/08 09:14:29;;;;;;;5.50;4.00;;;;;;;;;;10502527;28;20119;-81
2023/07/08 09:19:35;;;;;;;6.07;4.63;;;;;;;;;;10517752;28;20562;-79
2023/07/08 09:24:40;;;;;;;5.22;4.03;;;;;;;;;;10485214;28;20094;-80
2023/07/08 09:29:41;;;;;;;6.50;4.20;;;;;;;;;;10485249;28;20060;-79
2023/07/08 09:34:43;;;;;;;6.77;4.53;;;;;;;;;;10473111;28;20171;-79
2023/07/08 09:39:45;;;;;;;5.10;3.95;;;;;;;;;;10490421;28;20052;-79
2023/07/08 09:44:45;;;;;;;4.57;3.97;;;;;;;;;;10489829;28;20055;-87
2023/07/08 09:49:47;;;;;;;7.30;6.33;;;;;;;;;;10474122;28;20040;-78
2023/07/08 09:54:47;;;;;;;5.28;4.45;;;;;;;;;;10486370;28;20452;-85
2023/07/08 09:59:49;;;;;;;4.87;3.80;;;;;;;;;;10486829;28;20055;-82
2023/07/08 10:04:53;;;;;;;4.35;3.83;;;;;;;;;;10479789;28;20153;-83
2023/07/08 10:09:56;;;;;;;6.00;3.30;;;;;;;;;;10494172;28;20039;-81
2023/07/08 10:14:59;;;;;;;5.05;3.78;;;;;;;;;;10532039;28;20390;-82
2023/07/08 10:19:59;;;;;;;4.43;3.50;;;;;;;;;;10493969;28;20028;-83
2023/07/08 10:25:06;;;;;;;5.17;3.70;;;;;;;;;;10482448;28;20045;-82
2023/07/08 10:30:21;;;;;;;4.47;3.60;;;;;;;;;;10475488;28;20044;-81
2023/07/08 10:35:28;;;;;;;5.00;4.20;;;;;;;;;;10490044;28;20029;-81
2023/07/08 10:40:49;;;;;;;4.70;4.20;;;;;;;;;;10482628;28;20056;-82
2023/07/08 10:45:54;;;;;;;4.47;3.80;;;;;;;;;;10495707;28;20043;-82
2023/07/08 10:51:13;;;;;;;5.43;3.67;;;;;;;;;;10496948;28;20032;-83
2023/07/08 10:56:21;;;;;;;6.18;3.80;;;;;;;;;;10482883;28;20037;-75
2023/07/08 11:01:40;;;;;;;3.95;3.55;;;;;;;;;;10481247;28;20047;-77
2023/07/08 11:07:00;;;;;;;5.65;3.90;;;;;;;;;;10460237;28;20953;-78
2023/07/08 11:12:04;;;;;;;4.65;3.40;;;;;;;;;;10468572;28;20139;-78
2023/07/08 11:17:05;;;;;;;4.32;3.60;;;;;;;;;;10472286;28;20045;-75
2023/07/08 11:22:08;;;;;;;7.93;3.80;;;;;;;;;;10474363;28;20545;-74
2023/07/08 11:27:14;;;;;;;5.07;4.30;;;;;;;;;;10466848;28;20480;-73
2023/07/08 11:32:16;;;;;;;5.80;3.85;;;;;;;;;;10451806;28;20032;-74
2023/07/08 11:37:18;;;;;;;6.88;4.50;;;;;;;;;;10471076;28;20815;-74
2023/07/08 11:42:37;;;;;;;5.43;4.00;;;;;;;;;;10459667;28;20081;-77
2023/07/08 11:47:40;;;;;;;5.07;4.03;;;;;;;;;;10481995;28;20044;-78
2023/07/08 11:52:50;;;;;;;4.47;3.90;;;;;;;;;;10483417;28;20041;-81
2023/07/08 11:57:52;;;;;;;6.40;4.82;;;;;;;;;;10484802;28;20082;-77
2023/07/08 12:02:54;;;;;;;5.38;4.40;;;;;;;;;;10491542;28;20127;-79
2023/07/08 12:07:58;;;;;;;4.85;3.90;;;;;;;;;;10506650;28;20044;-82
2023/07/08 12:12:58;;;;;;;4.13;3.70;;;;;;;;;;10455869;28;20043;-80
2023/07/08 12:18:06;;;;;;;5.22;4.20;;;;;;;;;;10418122;28;20049;-79
2023/07/08 12:23:15;;;;;;;5.38;4.00;;;;;;;;;;10417727;28;20516;-80
2023/07/08 12:28:16;;;;;;;4.53;3.72;;;;;;;;;;10430441;28;20397;-82
2023/07/08 12:33:18;;;;;;;;;;;;;;;;;;10434785;28;20033;-80
2023/07/08 12:38:24;;;;;;;4.43;3.67;;;;;;;;;;10436426;28;19924;-85
2023/07/08 12:43:25;;;;;;;5.97;4.28;;;;;;;;;;10418468;28;20123;-78
2023/07/08 12:48:25;;;;;;;;;;;;;;;;;;10423391;28;20941;-78
2023/07/08 12:53:25;;;;;;;4.55;3.72;;;;;;;;;;10442951;28;20379;-84
2023/07/08 12:58:29;;;;;;;4.40;3.90;;;;;;;;;;10442049;28;20889;-84
2023/07/08 13:03:33;;;;;;;4.95;4.13;;;;;;;;;;10404453;28;20174;-83
2023/07/08 13:08:35;;;;;;;4.93;4.43;;;;;;;;;;10444543;28;20116;-84
2023/07/08 13:13:42;;;;;;;4.78;3.30;;;;;;;;;;10440080;28;20147;-77
2023/07/08 13:18:43;;;;;;;4.65;4.15;;;;;;;;;;10437527;28;20041;-78
2023/07/08 13:23:44;;;;;;;5.00;3.55;;;;;;;;;;10428802;28;20044;-82
2023/07/08 13:28:45;;;;;;;4.32;3.90;;;;;;;;;;10428317;28;20088;-77
2023/07/08 13:33:50;;;;;;;6.25;4.25;;;;;;;;;;10431729;28;20037;-79
2023/07/08 13:38:50;;;;;;;5.18;4.32;;;;;;;;;;10421753;28;20053;-79
2023/07/08 13:43:51;;;;;;;7.20;4.45;;;;;;;;;;10441495;28;20507;-79
2023/07/08 13:48:51;;;;;;;5.63;4.32;;;;;;;;;;10425144;28;20029;-79
2023/07/08 13:53:57;;;;;;;4.68;3.80;;;;;;;;;;10443666;28;20087;-79
2023/07/08 13:59:01;;;;;;;5.68;4.40;;;;;;;;;;10440030;28;20445;-77
2023/07/08 14:04:02;;;;;;;5.72;4.22;;;;;;;;;;10445538;28;20051;-79
2023/07/08 14:09:11;;;;;;;5.18;4.32;;;;;;;;;;10445536;28;20450;-80
2023/07/08 14:14:12;;;;;;;4.80;3.92;;;;;;;;;;10446482;28;20397;-78
2023/07/08 14:19:14;;;;;;;5.18;4.57;;;;;;;;;;10443805;28;20047;-77
2023/07/08 14:24:14;;;;;;;5.45;4.50;;;;;;;;;;10439800;28;20033;-81
2023/07/08 14:29:15;;;;;;;6.18;4.55;;;;;;;;;;10441377;28;20284;-79
2023/07/08 14:34:21;;;;;;;5.40;4.17;;;;;;;;;;10448820;28;20044;-82
2023/07/08 14:39:21;;;;;;;6.53;4.85;;;;;;;;;;10447646;28;20053;-82
2023/07/08 14:44:30;;;;;;;5.28;4.20;;;;;;;;;;10453330;28;20053;-81
2023/07/08 14:49:33;;;;;;;6.07;4.60;;;;;;;;;;10448238;28;20037;-80
2023/07/08 14:54:33;;;;;;;6.57;4.18;;;;;;;;;;10446782;28;20041;-80
2023/07/08 14:59:35;;;;;;;4.75;4.25;;;;;;;;;;10455067;28;20021;-87
2023/07/08 15:04:36;;;;;;;5.45;4.30;;;;;;;;;;10490808;28;20127;-83
2023/07/08 15:09:37;;;;;;;6.40;5.63;;;;;;;;;;10478810;28;20127;-81
2023/07/08 15:14:38;;;;;;;4.90;4.00;;;;;;;;;;10454020;28;20088;-81
2023/07/08 15:19:39;;;;;;;5.38;4.88;;;;;;;;;;10416417;28;20045;-83
2023/07/08 15:24:39;;;;;;;5.68;3.92;;;;;;;;;;10406807;28;20048;-80
2023/07/08 15:29:41;;;;;;;6.18;4.63;;;;;;;;;;10423355;28;20036;-79
2023/07/08 15:34:41;;;;;;;11.13;10.02;;;;;;;;;;10441971;28;20040;-77
2023/07/08 15:39:43;;;;;;;6.35;5.47;;;;;;;;;;10441928;28;20041;-82
2023/07/08 15:44:45;;;;;;;4.93;4.27;;;;;;;;;;10439748;28;20037;-81
2023/07/08 15:49:45;;;;;;;5.65;4.38;;;;;;;;;;10419508;28;20564;-80
2023/07/08 15:54:46;;;;;;;5.27;4.03;;;;;;;;;;10416695;28;20048;-82
2023/07/08 15:59:46;;;;;;;5.90;4.50;;;;;;;;;;10436200;28;20638;-77
2023/07/08 16:04:47;;;;;;;5.75;4.38;;;;;;;;;;10436145;28;20712;-78
2023/07/08 16:09:47;;;;;;;5.73;4.57;;;;;;;;;;10432323;28;20036;-81
2023/07/08 16:14:49;;;;;;;5.00;4.50;;;;;;;;;;10435890;28;20041;-82
2023/07/08 16:19:49;;;;;;;6.65;5.35;;;;;;;;;;10437469;28;20573;-84
2023/07/08 16:24:50;;;;;;;;;;;;;;;;;;10433954;28;20045;-81
2023/07/08 16:29:50;;;;;;;5.90;5.30;;;;;;;;;;10438395;28;20049;-81
2023/07/08 16:34:50;;;;;;;;;;;;;;;;;;10443921;28;20033;-83
2023/07/08 16:39:52;;;;;;;4.68;4.20;;;;;;;;;;10439355;28;19951;-78
2023/07/08 16:44:52;;;;;;;6.13;5.07;;;;;;;;;;10436444;28;20045;-77
2023/07/08 16:49:53;;;;;;;5.35;4.35;;;;;;;;;;10438812;28;20025;-81
2023/07/08 16:54:53;;;;;;;;;;;;;;;;;;10415115;28;20069;-82
2023/07/08 16:59:54;;;;;;;6.68;4.70;;;;;;;;;;10443816;28;19917;-80
2023/07/08 17:04:55;;;;;;;5.30;4.80;;;;;;;;;;10461554;28;20044;-82
2023/07/08 17:09:55;;;;;;;;;;;;;;;;;;10466555;28;20626;-80
2023/07/08 17:14:55;;;;;;;6.03;4.95;;;;;;;;;;10443131;28;19999;-81
2023/07/08 17:19:59;;;;;;;5.37;4.87;;;;;;;;;;10403226;28;20077;-79
2023/07/08 17:25:01;;;;;;;6.00;4.68;;;;;;;;;;10399029;28;20037;-83
2023/07/08 17:30:01;;;;;;;8.30;7.33;;;;;;;;;;10401512;28;20033;-77
2023/07/08 17:35:03;;;;;;;6.90;5.93;;;;;;;;;;10400322;28;20061;-80
2023/07/08 17:40:04;;;;;;;9.63;6.65;;;;;;;;;;10392815;28;20297;-78
2023/07/08 17:45:05;;;;;;;8.73;7.38;;;;;;;;;;10399409;28;20060;-80
2023/07/08 17:50:12;;;;;;;7.03;6.00;;;;;;;;;;10398669;28;20032;-79
2023/07/08 17:55:13;;;;;;;8.93;5.40;;;;;;;;;;10415973;28;20048;-79
2023/07/08 18:00:18;;;;;;;7.37;6.30;;;;;;;;;;10419114;28;20038;-78
2023/07/08 18:05:23;;;;;;;9.93;7.80;;;;;;;;;;10410073;28;20047;-80
2023/07/08 18:10:25;;;;;;;11.38;7.82;;;;;;;;;;10403164;28;20036;-78
2023/07/08 18:15:27;;;;;;;9.85;7.63;;;;;;;;;;10394529;28;20053;-78
2023/07/08 18:20:32;;;;;;;8.07;6.78;;;;;;;;;;10390745;28;20034;-79
2023/07/08 18:25:34;;;;;;;8.73;6.93;;;;;;;;;;10389852;28;20057;-81
2023/07/08 18:30:35;;;;;;;6.15;5.55;;;;;;;;;;10394547;28;20436;-79
2023/07/08 18:35:35;;;;;;;6.17;5.03;;;;;;;;;;10398122;28;20037;-79
2023/07/08 18:40:39;;;;;;;7.57;5.23;;;;;;;;;;10400932;28;20049;-82
2023/07/08 18:45:40;;;;;;;7.05;5.50;;;;;;;;;;10413077;28;20041;-81
2023/07/08 18:50:41;;;;;;;6.13;5.53;;;;;;;;;;10400278;28;20042;-79
2023/07/08 18:55:41;;;;;;;6.30;5.43;;;;;;;;;;10410918;28;20041;-79
2023/07/08 19:00:42;;;;;;;8.90;6.47;;;;;;;;;;10400047;28;20456;-79
2023/07/08 19:05:42;;;;;;;10.23;8.53;;;;;;;;;;10393668;28;20128;-80
2023/07/08 19:10:43;;;;;;;13.53;11.97;;;;;;;;;;10397100;28;20431;-81
2023/07/08 19:15:43;;;;;;;17.07;13.20;;;;;;;;;;10394499;28;20060;-84
2023/07/08 19:20:44;;;;;;;17.50;13.20;;;;;;;;;;10395185;28;20049;-84
2023/07/08 19:25:45;;;;;;;17.45;13.93;;;;;;;;;;10420006;28;20048;-79
2023/07/08 19:30:50;;;;;;;11.97;9.73;;;;;;;;;;10414258;28;20036;-85
2023/07/08 19:35:51;;;;;;;10.52;8.93;;;;;;;;;;10403490;28;20053;-84
2023/07/08 19:40:51;;;;;;;11.33;9.77;;;;;;;;;;10406481;28;20044;-82
2023/07/08 19:45:53;;;;;;;12.07;8.87;;;;;;;;;;10409408;28;20021;-84
2023/07/08 19:50:54;;;;;;;8.68;7.78;;;;;;;;;;10408580;28;20025;-83
2023/07/08 19:55:55;;;;;;;11.20;7.93;;;;;;;;;;10411407;28;20511;-84
2023/07/08 20:00:55;;;;;;;9.67;7.37;;;;;;;;;;10410845;28;20052;-82
2023/07/08 20:05:55;;;;;;;7.83;7.00;;;;;;;;;;10411762;28;20041;-85
2023/07/08 20:10:56;;;;;;;14.13;7.40;;;;;;;;;;10408823;28;20152;-81
2023/07/08 20:15:57;;;;;;;10.50;7.57;;;;;;;;;;10421588;28;20061;-82
2023/07/08 20:20:59;;;;;;;9.23;7.37;;;;;;;;;;10408344;28;20056;-83
2023/07/08 20:25:59;;;;;;;10.93;8.25;;;;;;;;;;10391249;28;20365;-79
2023/07/08 20:31:00;;;;;;;10.73;8.90;;;;;;;;;;10405226;28;20052;-80
2023/07/08 20:36:00;;;;;;;11.45;8.93;;;;;;;;;;10399266;28;20093;-83
2023/07/08 20:41:00;;;;;;;9.60;8.17;;;;;;;;;;10393248;28;20040;-76
2023/07/08 20:46:03;;;;;;;11.87;9.10;;;;;;;;;;10396681;28;20358;-82
2023/07/08 20:51:04;;;;;;;10.20;9.10;;;;;;;;;;10408847;28;20033;-84
2023/07/08 20:56:04;;;;;;;13.27;9.50;;;;;;;;;;10400531;28;20091;-82
2023/07/08 21:01:05;;;;;;;11.85;8.93;;;;;;;;;;10407009;28;20049;-79
2023/07/08 21:06:05;;;;;;;11.80;9.43;;;;;;;;;;10404051;28;20045;-80
2023/07/08 21:11:07;;;;;;;10.68;8.77;;;;;;;;;;10396533;28;20036;-81
2023/07/08 21:16:21;;;;;;;11.40;8.40;;;;;;;;;;10392353;28;20486;-79
2023/07/08 21:21:22;;;;;;;10.13;8.48;;;;;;;;;;10397815;28;20120;-83
2023/07/08 21:26:27;;;;;;;10.73;9.00;;;;;;;;;;10405778;28;20053;-79
2023/07/08 21:31:28;;;;;;;11.50;8.63;;;;;;;;;;10410322;28;20144;-78
2023/07/08 21:36:34;;;;;;;8.77;7.88;;;;;;;;;;10400945;28;20535;-83
2023/07/08 21:41:35;;;;;;;11.05;9.02;;;;;;;;;;10416330;28;20397;-81
2023/07/08 21:46:35;;;;;;;10.00;8.53;;;;;;;;;;10403398;28;20045;-81
2023/07/08 21:51:36;;;;;;;9.60;8.63;;;;;;;;;;10416916;28;20219;-82
2023/07/08 21:56:36;;;;;;;8.90;7.95;;;;;;;;;;10421705;28;20049;-80
2023/07/08 22:01:38;;;;;;;8.93;8.00;;;;;;;;;;10422707;28;20081;-80
2023/07/08 22:06:39;;;;;;;10.07;8.60;;;;;;;;;;10413638;28;20370;-80
2023/07/08 22:11:42;;;;;;;10.50;8.63;;;;;;;;;;10411886;28;20503;-79
2023/07/08 22:16:42;;;;;;;9.27;8.10;;;;;;;;;;10394116;28;20052;-79
2023/07/08 22:21:43;;;;;;;7.93;7.10;;;;;;;;;;10394488;28;20042;-80
2023/07/08 22:26:44;;;;;;;8.83;7.80;;;;;;;;;;10398620;28;20108;-81
2023/07/08 22:31:45;;;;;;;8.70;7.80;;;;;;;;;;10400190;28;20391;-78
2023/07/08 22:36:46;;;;;;;7.93;7.13;;;;;;;;;;10399139;28;20099;-77
2023/07/08 22:41:49;;;;;;;10.15;7.85;;;;;;;;;;10382140;28;20052;-76
2023/07/08 22:46:49;;;;;;;;;;;;;;;;;;10399858;28;20834;-79
2023/07/08 22:51:51;;;;;;;10.48;9.07;;;;;;;;;;10395316;28;19920;-81
2023/07/08 22:56:51;;;;;;;11.13;8.80;;;;;;;;;;10400802;28;20489;-80
2023/07/08 23:01:52;;;;;;;10.23;8.98;;;;;;;;;;10396716;28;20045;-81
2023/07/08 23:06:52;;;;;;;10.02;9.10;;;;;;;;;;10388317;28;20061;-80
2023/07/08 23:11:52;;;;;;;11.53;10.33;;;;;;;;;;10396452;28;20064;-77
2023/07/08 23:16:53;;;;;;;10.33;8.93;;;;;;;;;;10392253;28;20073;-76
2023/07/08 23:21:53;;;;;;;10.63;9.20;;;;;;;;;;10393264;28;20037;-79
2023/07/08 23:26:54;;;;;;;9.85;8.45;;;;;;;;;;10400129;28;20048;-79
2023/07/08 23:31:54;;;;;;;9.60;8.63;;;;;;;;;;10402785;28;20055;-80
2023/07/08 23:36:54;;;;;;;10.43;9.33;;;;;;;;;;10409228;28;20477;-83
2023/07/08 23:41:56;;;;;;;9.77;8.50;;;;;;;;;;10404080;28;20091;-80
2023/07/08 23:47:02;;;;;;;10.80;9.70;;;;;;;;;;10433819;28;20041;-78
2023/07/08 23:52:03;;;;;;;10.07;8.90;;;;;;;;;;10425469;28;20040;-79
2023/07/08 23:57:04;;;;;;;9.93;8.93;;;;;;;;;;10419090;28;20309;-77
